Hovedside
METAR-TAF:

METAR-TAF

Lufthavner :

Dharamsala, India

breddegrad: 32-09-54N, lengdegrad: 76-15-48E, høyde over havet: 770 m

Gjeldene værobservasjon

Denne rapporten ble laget for 23 minutter siden, klokken 02:00 UTC
Vind 2 kt fra Øst-sørøst
Temperatur 25°C
Luftfuktighet 94%
Trykk 1006 hPa
Sikt: 5000 m
Få skyer i en høyde av 3500 ft
Spredte skyer i en høyde av 8000 ft
dis,

METAR: VIGG 150200Z 11002KT 5000 BR FEW035 SCT080 25/24 Q1006

Tid: 07:53 (02:23 UTC)

Varsel

Denne rapporten ble laget for 3 timer og 23 minutter siden, klokken 23:00 UTC
Varsel gyldig fra 15. klokken 00 UTC til 15. klokken 09 UTC
Vind 4 kt fra Øst-nordøst
Sikt: 4000 m
Få skyer i en høyde av 8000 ft
dis
Blir
fra 15. klokken 06 UTC til 15. klokken 08 UTC
Vind 5 kt fra Sørvest
Sikt: 6000 m
Få skyer i en høyde av 3000 ft
Spredte skyer i en høyde av 8000 ft

TAF: VIGG 142300Z 1500/1509 07004KT 4000 BR FEW080 BECMG 1506/1508 23005KT 6000 FEW030 SCT080

Værobservasjoner og værvarsel for over 4000 flyplasser (METAR- og TAF-rapporter).

Tilgjengelige stasjoner er representert av de røde og gule prikkene på kartet.

Hold musepekeren over prikken for å se navnet på stasjonen.

Klikk så for å se værobservasjoner og -varsler.

For å forandre kartet kan du klikke på den grønne knappen med svart kryss for å zoome inn, på den grønne knappen med strek for å zoome ut, eller på de grønne pilene for å se tilstøtende kart.


METAR-TAF: